sensor_id;sensor_type;location;lat;lon;timestamp;P1;durP1;ratioP1;P2;durP2;ratioP2
11747;SDS011;5931;48.832;9.072;2023-07-29T00:01:23;2.30;;;1.83;;
11747;SDS011;5931;48.832;9.072;2023-07-29T00:03:48;2.60;;;2.10;;
11747;SDS011;5931;48.832;9.072;2023-07-29T00:06:14;1.70;;;1.50;;
11747;SDS011;5931;48.832;9.072;2023-07-29T00:08:40;2.53;;;1.93;;
11747;SDS011;5931;48.832;9.072;2023-07-29T00:11:05;2.07;;;1.47;;
11747;SDS011;5931;48.832;9.072;2023-07-29T00:13:31;2.70;;;1.77;;
11747;SDS011;5931;48.832;9.072;2023-07-29T00:15:56;1.70;;;1.50;;
11747;SDS011;5931;48.832;9.072;2023-07-29T00:18:22;2.30;;;2.00;;
11747;SDS011;5931;48.832;9.072;2023-07-29T00:20:48;2.23;;;1.43;;
11747;SDS011;5931;48.832;9.072;2023-07-29T00:23:16;2.30;;;2.00;;
11747;SDS011;5931;48.832;9.072;2023-07-29T00:25:44;1.80;;;1.50;;
11747;SDS011;5931;48.832;9.072;2023-07-29T00:28:10;2.40;;;2.00;;
11747;SDS011;5931;48.832;9.072;2023-07-29T00:30:36;2.07;;;1.87;;
11747;SDS011;5931;48.832;9.072;2023-07-29T00:33:04;2.40;;;1.97;;
11747;SDS011;5931;48.832;9.072;2023-07-29T00:35:30;2.03;;;1.70;;
11747;SDS011;5931;48.832;9.072;2023-07-29T00:37:55;2.50;;;1.90;;
11747;SDS011;5931;48.832;9.072;2023-07-29T00:40:21;2.87;;;2.07;;
11747;SDS011;5931;48.832;9.072;2023-07-29T00:42:48;2.10;;;1.90;;
11747;SDS011;5931;48.832;9.072;2023-07-29T00:45:15;2.20;;;1.70;;
11747;SDS011;5931;48.832;9.072;2023-07-29T00:47:41;2.50;;;1.83;;
11747;SDS011;5931;48.832;9.072;2023-07-29T00:50:12;2.03;;;1.83;;
11747;SDS011;5931;48.832;9.072;2023-07-29T00:52:39;1.83;;;1.63;;
11747;SDS011;5931;48.832;9.072;2023-07-29T00:55:05;2.07;;;1.73;;
11747;SDS011;5931;48.832;9.072;2023-07-29T00:57:32;1.60;;;1.50;;
11747;SDS011;5931;48.832;9.072;2023-07-29T00:59:58;1.87;;;1.67;;
11747;SDS011;5931;48.832;9.072;2023-07-29T01:02:25;2.10;;;1.77;;
11747;SDS011;5931;48.832;9.072;2023-07-29T01:05:01;2.23;;;1.80;;
11747;SDS011;5931;48.832;9.072;2023-07-29T01:07:30;2.17;;;1.70;;
11747;SDS011;5931;48.832;9.072;2023-07-29T01:10:07;3.87;;;2.60;;
11747;SDS011;5931;48.832;9.072;2023-07-29T01:15:21;1.70;;;1.60;;
11747;SDS011;5931;48.832;9.072;2023-07-29T01:18:08;2.73;;;1.63;;
11747;SDS011;5931;48.832;9.072;2023-07-29T01:20:40;2.10;;;1.90;;
11747;SDS011;5931;48.832;9.072;2023-07-29T01:23:09;1.90;;;1.60;;
11747;SDS011;5931;48.832;9.072;2023-07-29T01:25:34;2.23;;;1.73;;
11747;SDS011;5931;48.832;9.072;2023-07-29T01:28:00;2.30;;;2.10;;
11747;SDS011;5931;48.832;9.072;2023-07-29T01:30:28;3.13;;;1.90;;
11747;SDS011;5931;48.832;9.072;2023-07-29T01:33:14;3.77;;;2.40;;
11747;SDS011;5931;48.832;9.072;2023-07-29T01:35:46;2.20;;;1.80;;
11747;SDS011;5931;48.832;9.072;2023-07-29T01:38:18;1.73;;;1.60;;
11747;SDS011;5931;48.832;9.072;2023-07-29T01:40:48;2.83;;;2.23;;
11747;SDS011;5931;48.832;9.072;2023-07-29T01:43:15;1.63;;;1.53;;
11747;SDS011;5931;48.832;9.072;2023-07-29T01:45:44;3.67;;;1.97;;
11747;SDS011;5931;48.832;9.072;2023-07-29T01:48:10;2.23;;;2.03;;
11747;SDS011;5931;48.832;9.072;2023-07-29T01:50:35;2.60;;;2.17;;
11747;SDS011;5931;48.832;9.072;2023-07-29T01:53:01;1.97;;;1.77;;
11747;SDS011;5931;48.832;9.072;2023-07-29T01:55:27;2.07;;;1.87;;
11747;SDS011;5931;48.832;9.072;2023-07-29T01:57:54;3.40;;;1.90;;
11747;SDS011;5931;48.832;9.072;2023-07-29T02:00:22;1.97;;;1.60;;
11747;SDS011;5931;48.832;9.072;2023-07-29T02:02:47;1.90;;;1.80;;
11747;SDS011;5931;48.832;9.072;2023-07-29T02:05:13;2.00;;;1.50;;
11747;SDS011;5931;48.832;9.072;2023-07-29T02:07:39;2.60;;;1.60;;
11747;SDS011;5931;48.832;9.072;2023-07-29T02:10:04;1.80;;;1.70;;
11747;SDS011;5931;48.832;9.072;2023-07-29T02:12:30;2.30;;;2.07;;
11747;SDS011;5931;48.832;9.072;2023-07-29T02:14:56;3.40;;;1.90;;
11747;SDS011;5931;48.832;9.072;2023-07-29T02:17:22;2.37;;;2.00;;
11747;SDS011;5931;48.832;9.072;2023-07-29T02:19:47;2.00;;;1.77;;
11747;SDS011;5931;48.832;9.072;2023-07-29T02:22:13;2.63;;;2.10;;
11747;SDS011;5931;48.832;9.072;2023-07-29T02:24:40;1.97;;;1.77;;
11747;SDS011;5931;48.832;9.072;2023-07-29T02:27:06;1.60;;;1.50;;
11747;SDS011;5931;48.832;9.072;2023-07-29T02:29:32;1.80;;;1.63;;
11747;SDS011;5931;48.832;9.072;2023-07-29T02:31:58;2.10;;;1.90;;
11747;SDS011;5931;48.832;9.072;2023-07-29T02:34:24;2.70;;;2.20;;
11747;SDS011;5931;48.832;9.072;2023-07-29T02:36:50;2.67;;;2.10;;
11747;SDS011;5931;48.832;9.072;2023-07-29T02:39:16;1.97;;;1.77;;
11747;SDS011;5931;48.832;9.072;2023-07-29T02:41:42;2.30;;;1.90;;
11747;SDS011;5931;48.832;9.072;2023-07-29T02:44:08;3.77;;;2.20;;
11747;SDS011;5931;48.832;9.072;2023-07-29T02:46:33;2.67;;;1.60;;
11747;SDS011;5931;48.832;9.072;2023-07-29T02:48:59;2.90;;;2.27;;
11747;SDS011;5931;48.832;9.072;2023-07-29T02:51:26;2.37;;;2.00;;
11747;SDS011;5931;48.832;9.072;2023-07-29T02:53:52;2.30;;;2.10;;
11747;SDS011;5931;48.832;9.072;2023-07-29T02:56:19;3.23;;;2.00;;
11747;SDS011;5931;48.832;9.072;2023-07-29T02:58:44;2.13;;;1.70;;
11747;SDS011;5931;48.832;9.072;2023-07-29T03:01:10;3.10;;;1.87;;
11747;SDS011;5931;48.832;9.072;2023-07-29T03:03:36;2.43;;;2.00;;
11747;SDS011;5931;48.832;9.072;2023-07-29T03:06:04;4.00;;;3.10;;
11747;SDS011;5931;48.832;9.072;2023-07-29T03:08:30;6.40;;;2.23;;
11747;SDS011;5931;48.832;9.072;2023-07-29T03:10:56;2.90;;;1.87;;
11747;SDS011;5931;48.832;9.072;2023-07-29T03:13:22;2.33;;;1.80;;
11747;SDS011;5931;48.832;9.072;2023-07-29T03:15:48;1.90;;;1.53;;
11747;SDS011;5931;48.832;9.072;2023-07-29T03:18:14;2.00;;;1.73;;
11747;SDS011;5931;48.832;9.072;2023-07-29T03:20:40;2.10;;;1.80;;
11747;SDS011;5931;48.832;9.072;2023-07-29T03:23:06;2.47;;;1.70;;
11747;SDS011;5931;48.832;9.072;2023-07-29T03:25:32;2.20;;;1.60;;
11747;SDS011;5931;48.832;9.072;2023-07-29T03:27:58;2.20;;;1.93;;
11747;SDS011;5931;48.832;9.072;2023-07-29T03:30:23;2.00;;;1.50;;
11747;SDS011;5931;48.832;9.072;2023-07-29T03:32:51;3.03;;;1.80;;
11747;SDS011;5931;48.832;9.072;2023-07-29T03:35:16;2.00;;;1.80;;
11747;SDS011;5931;48.832;9.072;2023-07-29T03:37:42;2.30;;;1.80;;
11747;SDS011;5931;48.832;9.072;2023-07-29T03:40:08;1.87;;;1.63;;
11747;SDS011;5931;48.832;9.072;2023-07-29T03:42:35;2.30;;;1.77;;
11747;SDS011;5931;48.832;9.072;2023-07-29T03:45:01;4.53;;;2.10;;
11747;SDS011;5931;48.832;9.072;2023-07-29T03:47:27;2.63;;;1.80;;
11747;SDS011;5931;48.832;9.072;2023-07-29T03:49:53;8.30;;;2.23;;
11747;SDS011;5931;48.832;9.072;2023-07-29T03:52:21;2.50;;;2.03;;
11747;SDS011;5931;48.832;9.072;2023-07-29T03:54:46;2.17;;;1.93;;
11747;SDS011;5931;48.832;9.072;2023-07-29T03:57:12;3.10;;;1.73;;
11747;SDS011;5931;48.832;9.072;2023-07-29T03:59:38;2.83;;;2.10;;
11747;SDS011;5931;48.832;9.072;2023-07-29T04:02:03;2.53;;;2.33;;
11747;SDS011;5931;48.832;9.072;2023-07-29T04:04:29;4.80;;;2.80;;
11747;SDS011;5931;48.832;9.072;2023-07-29T04:06:55;1.80;;;1.70;;
11747;SDS011;5931;48.832;9.072;2023-07-29T04:09:21;2.87;;;2.13;;
11747;SDS011;5931;48.832;9.072;2023-07-29T04:11:47;1.90;;;1.70;;
11747;SDS011;5931;48.832;9.072;2023-07-29T04:14:12;5.63;;;2.60;;
11747;SDS011;5931;48.832;9.072;2023-07-29T04:16:38;2.23;;;2.03;;
11747;SDS011;5931;48.832;9.072;2023-07-29T04:19:04;2.43;;;2.00;;
11747;SDS011;5931;48.832;9.072;2023-07-29T04:21:29;2.57;;;1.77;;
11747;SDS011;5931;48.832;9.072;2023-07-29T04:23:55;3.13;;;2.10;;
11747;SDS011;5931;48.832;9.072;2023-07-29T04:26:21;3.20;;;2.23;;
11747;SDS011;5931;48.832;9.072;2023-07-29T04:28:46;3.13;;;1.97;;
11747;SDS011;5931;48.832;9.072;2023-07-29T04:31:12;3.00;;;2.40;;
11747;SDS011;5931;48.832;9.072;2023-07-29T04:33:38;3.30;;;2.30;;
11747;SDS011;5931;48.832;9.072;2023-07-29T04:36:04;4.07;;;2.77;;
11747;SDS011;5931;48.832;9.072;2023-07-29T04:38:30;2.23;;;2.03;;
11747;SDS011;5931;48.832;9.072;2023-07-29T04:41:00;3.70;;;2.57;;
11747;SDS011;5931;48.832;9.072;2023-07-29T04:43:30;2.63;;;1.83;;
11747;SDS011;5931;48.832;9.072;2023-07-29T04:45:57;2.93;;;2.37;;
11747;SDS011;5931;48.832;9.072;2023-07-29T04:48:22;2.60;;;2.07;;
11747;SDS011;5931;48.832;9.072;2023-07-29T04:50:48;4.17;;;2.40;;
11747;SDS011;5931;48.832;9.072;2023-07-29T04:53:14;3.03;;;2.73;;
11747;SDS011;5931;48.832;9.072;2023-07-29T04:55:43;2.90;;;1.93;;
11747;SDS011;5931;48.832;9.072;2023-07-29T04:58:09;2.80;;;2.50;;
11747;SDS011;5931;48.832;9.072;2023-07-29T05:00:35;4.87;;;2.10;;
11747;SDS011;5931;48.832;9.072;2023-07-29T05:03:02;5.37;;;2.50;;
11747;SDS011;5931;48.832;9.072;2023-07-29T05:05:28;4.53;;;2.63;;
11747;SDS011;5931;48.832;9.072;2023-07-29T05:07:54;3.50;;;2.33;;
11747;SDS011;5931;48.832;9.072;2023-07-29T05:10:19;6.60;;;2.53;;
11747;SDS011;5931;48.832;9.072;2023-07-29T05:12:45;3.27;;;2.23;;
11747;SDS011;5931;48.832;9.072;2023-07-29T05:15:11;2.93;;;2.10;;
11747;SDS011;5931;48.832;9.072;2023-07-29T05:17:37;3.30;;;2.30;;
11747;SDS011;5931;48.832;9.072;2023-07-29T05:20:03;4.93;;;2.30;;
11747;SDS011;5931;48.832;9.072;2023-07-29T05:22:29;3.73;;;2.43;;
11747;SDS011;5931;48.832;9.072;2023-07-29T05:24:55;3.70;;;2.27;;
11747;SDS011;5931;48.832;9.072;2023-07-29T05:27:20;3.53;;;2.33;;
11747;SDS011;5931;48.832;9.072;2023-07-29T05:29:46;3.20;;;2.20;;
11747;SDS011;5931;48.832;9.072;2023-07-29T05:32:12;4.10;;;2.47;;
11747;SDS011;5931;48.832;9.072;2023-07-29T05:34:37;3.80;;;1.93;;
11747;SDS011;5931;48.832;9.072;2023-07-29T05:37:03;10.80;;;2.40;;
11747;SDS011;5931;48.832;9.072;2023-07-29T05:39:29;2.27;;;1.90;;
11747;SDS011;5931;48.832;9.072;2023-07-29T05:41:57;2.17;;;1.63;;
11747;SDS011;5931;48.832;9.072;2023-07-29T05:44:23;1.57;;;1.43;;
11747;SDS011;5931;48.832;9.072;2023-07-29T05:46:48;4.60;;;1.87;;
11747;SDS011;5931;48.832;9.072;2023-07-29T05:49:14;3.77;;;2.20;;
11747;SDS011;5931;48.832;9.072;2023-07-29T05:51:41;3.30;;;2.17;;
11747;SDS011;5931;48.832;9.072;2023-07-29T05:54:06;2.57;;;2.00;;
11747;SDS011;5931;48.832;9.072;2023-07-29T05:56:32;2.27;;;1.77;;
11747;SDS011;5931;48.832;9.072;2023-07-29T05:58:58;2.23;;;1.67;;
11747;SDS011;5931;48.832;9.072;2023-07-29T06:01:23;3.10;;;2.30;;
11747;SDS011;5931;48.832;9.072;2023-07-29T06:03:49;2.53;;;2.00;;
11747;SDS011;5931;48.832;9.072;2023-07-29T06:06:15;2.13;;;1.43;;
11747;SDS011;5931;48.832;9.072;2023-07-29T06:08:41;3.75;;;2.00;;
11747;SDS011;5931;48.832;9.072;2023-07-29T06:11:06;2.03;;;1.70;;
11747;SDS011;5931;48.832;9.072;2023-07-29T06:13:32;1.60;;;1.40;;
11747;SDS011;5931;48.832;9.072;2023-07-29T06:15:58;1.77;;;1.60;;
11747;SDS011;5931;48.832;9.072;2023-07-29T06:18:24;6.30;;;1.63;;
11747;SDS011;5931;48.832;9.072;2023-07-29T06:20:50;4.57;;;1.50;;
11747;SDS011;5931;48.832;9.072;2023-07-29T06:23:16;2.00;;;1.70;;
11747;SDS011;5931;48.832;9.072;2023-07-29T06:25:42;1.90;;;1.70;;
11747;SDS011;5931;48.832;9.072;2023-07-29T06:28:08;2.13;;;1.70;;
11747;SDS011;5931;48.832;9.072;2023-07-29T06:30:35;1.57;;;1.47;;
11747;SDS011;5931;48.832;9.072;2023-07-29T06:33:00;1.83;;;1.53;;
11747;SDS011;5931;48.832;9.072;2023-07-29T06:35:28;3.57;;;1.70;;
11747;SDS011;5931;48.832;9.072;2023-07-29T06:37:53;9.70;;;2.20;;
11747;SDS011;5931;48.832;9.072;2023-07-29T06:40:19;3.53;;;1.70;;
11747;SDS011;5931;48.832;9.072;2023-07-29T06:42:45;1.80;;;1.53;;
11747;SDS011;5931;48.832;9.072;2023-07-29T06:45:10;3.57;;;1.87;;
11747;SDS011;5931;48.832;9.072;2023-07-29T06:47:36;1.83;;;1.40;;
11747;SDS011;5931;48.832;9.072;2023-07-29T06:50:02;2.90;;;1.97;;
11747;SDS011;5931;48.832;9.072;2023-07-29T06:52:28;2.77;;;1.70;;
11747;SDS011;5931;48.832;9.072;2023-07-29T06:54:54;1.50;;;1.40;;
11747;SDS011;5931;48.832;9.072;2023-07-29T06:57:19;1.53;;;1.43;;
11747;SDS011;5931;48.832;9.072;2023-07-29T06:59:45;2.30;;;2.10;;
11747;SDS011;5931;48.832;9.072;2023-07-29T07:02:11;1.70;;;1.43;;
11747;SDS011;5931;48.832;9.072;2023-07-29T07:04:36;4.60;;;1.50;;
11747;SDS011;5931;48.832;9.072;2023-07-29T07:07:02;1.70;;;1.50;;
11747;SDS011;5931;48.832;9.072;2023-07-29T07:09:28;1.97;;;1.70;;
11747;SDS011;5931;48.832;9.072;2023-07-29T07:11:53;2.30;;;2.00;;
11747;SDS011;5931;48.832;9.072;2023-07-29T07:14:19;2.63;;;1.90;;
11747;SDS011;5931;48.832;9.072;2023-07-29T07:16:45;2.00;;;1.77;;
11747;SDS011;5931;48.832;9.072;2023-07-29T07:19:10;1.77;;;1.40;;
11747;SDS011;5931;48.832;9.072;2023-07-29T07:21:36;1.90;;;1.70;;
11747;SDS011;5931;48.832;9.072;2023-07-29T07:24:02;2.00;;;1.80;;
11747;SDS011;5931;48.832;9.072;2023-07-29T07:26:27;1.97;;;1.50;;
11747;SDS011;5931;48.832;9.072;2023-07-29T07:28:53;2.47;;;1.80;;
11747;SDS011;5931;48.832;9.072;2023-07-29T07:31:19;2.57;;;2.00;;
11747;SDS011;5931;48.832;9.072;2023-07-29T07:33:44;2.03;;;1.67;;
11747;SDS011;5931;48.832;9.072;2023-07-29T07:36:10;3.00;;;2.00;;
11747;SDS011;5931;48.832;9.072;2023-07-29T07:38:36;1.97;;;1.80;;
11747;SDS011;5931;48.832;9.072;2023-07-29T07:41:01;1.70;;;1.50;;
11747;SDS011;5931;48.832;9.072;2023-07-29T07:43:27;2.43;;;1.53;;
11747;SDS011;5931;48.832;9.072;2023-07-29T07:46:00;1.57;;;1.40;;
11747;SDS011;5931;48.832;9.072;2023-07-29T07:48:29;2.27;;;1.57;;
11747;SDS011;5931;48.832;9.072;2023-07-29T07:50:55;3.10;;;1.57;;
11747;SDS011;5931;48.832;9.072;2023-07-29T07:53:20;1.53;;;1.43;;
11747;SDS011;5931;48.832;9.072;2023-07-29T07:55:46;1.50;;;1.30;;
11747;SDS011;5931;48.832;9.072;2023-07-29T07:58:12;1.70;;;1.40;;
11747;SDS011;5931;48.832;9.072;2023-07-29T08:00:38;1.40;;;1.30;;
11747;SDS011;5931;48.832;9.072;2023-07-29T08:03:04;2.03;;;1.70;;
11747;SDS011;5931;48.832;9.072;2023-07-29T08:05:29;1.63;;;1.30;;
11747;SDS011;5931;48.832;9.072;2023-07-29T08:07:55;1.90;;;1.13;;
11747;SDS011;5931;48.832;9.072;2023-07-29T08:10:22;2.00;;;1.30;;
11747;SDS011;5931;48.832;9.072;2023-07-29T08:12:48;1.77;;;1.20;;
11747;SDS011;5931;48.832;9.072;2023-07-29T08:15:13;4.90;;;1.47;;
11747;SDS011;5931;48.832;9.072;2023-07-29T08:17:39;1.57;;;1.30;;
11747;SDS011;5931;48.832;9.072;2023-07-29T08:20:05;2.10;;;1.27;;
11747;SDS011;5931;48.832;9.072;2023-07-29T08:22:31;1.60;;;1.40;;
11747;SDS011;5931;48.832;9.072;2023-07-29T08:24:57;1.20;;;1.10;;
11747;SDS011;5931;48.832;9.072;2023-07-29T08:27:23;1.40;;;1.27;;
11747;SDS011;5931;48.832;9.072;2023-07-29T08:29:48;1.30;;;1.00;;
11747;SDS011;5931;48.832;9.072;2023-07-29T08:32:14;1.77;;;1.40;;
11747;SDS011;5931;48.832;9.072;2023-07-29T08:34:39;1.33;;;1.20;;
11747;SDS011;5931;48.832;9.072;2023-07-29T08:37:05;2.33;;;1.70;;
11747;SDS011;5931;48.832;9.072;2023-07-29T08:39:31;2.37;;;1.57;;
11747;SDS011;5931;48.832;9.072;2023-07-29T08:42:07;1.30;;;1.20;;
11747;SDS011;5931;48.832;9.072;2023-07-29T08:44:36;1.97;;;1.60;;
11747;SDS011;5931;48.832;9.072;2023-07-29T08:47:09;1.40;;;1.10;;
11747;SDS011;5931;48.832;9.072;2023-07-29T08:49:35;5.57;;;1.60;;
11747;SDS011;5931;48.832;9.072;2023-07-29T08:52:02;2.00;;;1.60;;
11747;SDS011;5931;48.832;9.072;2023-07-29T08:54:29;1.63;;;1.27;;
11747;SDS011;5931;48.832;9.072;2023-07-29T08:56:54;1.67;;;1.20;;
11747;SDS011;5931;48.832;9.072;2023-07-29T08:59:20;2.00;;;1.20;;
11747;SDS011;5931;48.832;9.072;2023-07-29T09:01:46;1.40;;;1.20;;
11747;SDS011;5931;48.832;9.072;2023-07-29T09:04:12;1.80;;;1.20;;
11747;SDS011;5931;48.832;9.072;2023-07-29T09:06:39;1.63;;;1.20;;
11747;SDS011;5931;48.832;9.072;2023-07-29T09:09:05;1.80;;;1.50;;
11747;SDS011;5931;48.832;9.072;2023-07-29T09:11:32;2.17;;;1.50;;
11747;SDS011;5931;48.832;9.072;2023-07-29T09:13:58;1.63;;;1.10;;
11747;SDS011;5931;48.832;9.072;2023-07-29T09:16:24;2.83;;;1.30;;
11747;SDS011;5931;48.832;9.072;2023-07-29T09:18:51;1.57;;;1.33;;
11747;SDS011;5931;48.832;9.072;2023-07-29T09:21:17;1.30;;;1.17;;
11747;SDS011;5931;48.832;9.072;2023-07-29T09:23:48;1.57;;;1.40;;
11747;SDS011;5931;48.832;9.072;2023-07-29T09:26:21;1.70;;;1.27;;
11747;SDS011;5931;48.832;9.072;2023-07-29T09:28:54;1.60;;;1.40;;
11747;SDS011;5931;48.832;9.072;2023-07-29T09:31:22;1.40;;;1.10;;
11747;SDS011;5931;48.832;9.072;2023-07-29T09:33:49;1.90;;;1.30;;
11747;SDS011;5931;48.832;9.072;2023-07-29T09:36:15;1.63;;;1.23;;
11747;SDS011;5931;48.832;9.072;2023-07-29T09:38:41;1.77;;;1.37;;
11747;SDS011;5931;48.832;9.072;2023-07-29T09:41:07;1.33;;;1.13;;
11747;SDS011;5931;48.832;9.072;2023-07-29T09:43:36;1.83;;;1.43;;
11747;SDS011;5931;48.832;9.072;2023-07-29T09:46:02;2.30;;;1.70;;
11747;SDS011;5931;48.832;9.072;2023-07-29T09:48:33;1.40;;;1.20;;
11747;SDS011;5931;48.832;9.072;2023-07-29T09:50:59;1.60;;;1.37;;
11747;SDS011;5931;48.832;9.072;2023-07-29T09:53:38;4.27;;;1.33;;
11747;SDS011;5931;48.832;9.072;2023-07-29T09:56:07;1.70;;;1.30;;
11747;SDS011;5931;48.832;9.072;2023-07-29T09:58:33;2.50;;;1.60;;
11747;SDS011;5931;48.832;9.072;2023-07-29T10:01:00;1.87;;;1.60;;
11747;SDS011;5931;48.832;9.072;2023-07-29T10:03:26;1.70;;;1.47;;
11747;SDS011;5931;48.832;9.072;2023-07-29T10:05:53;1.70;;;1.27;;
11747;SDS011;5931;48.832;9.072;2023-07-29T10:08:20;2.10;;;1.37;;
11747;SDS011;5931;48.832;9.072;2023-07-29T10:10:48;1.40;;;1.30;;
11747;SDS011;5931;48.832;9.072;2023-07-29T10:13:15;2.17;;;1.27;;
11747;SDS011;5931;48.832;9.072;2023-07-29T10:15:41;1.40;;;1.20;;
11747;SDS011;5931;48.832;9.072;2023-07-29T10:18:08;1.73;;;1.37;;
11747;SDS011;5931;48.832;9.072;2023-07-29T10:20:34;1.40;;;1.10;;
11747;SDS011;5931;48.832;9.072;2023-07-29T10:23:00;1.40;;;1.20;;
11747;SDS011;5931;48.832;9.072;2023-07-29T10:25:35;2.90;;;1.27;;
11747;SDS011;5931;48.832;9.072;2023-07-29T10:28:05;1.70;;;1.30;;
11747;SDS011;5931;48.832;9.072;2023-07-29T10:30:31;1.30;;;1.07;;
11747;SDS011;5931;48.832;9.072;2023-07-29T10:32:58;2.20;;;1.37;;
11747;SDS011;5931;48.832;9.072;2023-07-29T10:35:26;1.20;;;1.10;;
11747;SDS011;5931;48.832;9.072;2023-07-29T10:37:52;1.40;;;1.27;;
11747;SDS011;5931;48.832;9.072;2023-07-29T10:40:19;1.77;;;1.57;;
11747;SDS011;5931;48.832;9.072;2023-07-29T10:45:36;1.40;;;1.20;;
11747;SDS011;5931;48.832;9.072;2023-07-29T10:48:52;2.00;;;1.67;;
11747;SDS011;5931;48.832;9.072;2023-07-29T10:54:01;2.00;;;1.40;;
11747;SDS011;5931;48.832;9.072;2023-07-29T10:56:42;2.27;;;1.30;;
11747;SDS011;5931;48.832;9.072;2023-07-29T11:01:38;1.73;;;1.23;;
11747;SDS011;5931;48.832;9.072;2023-07-29T11:18:04;1.50;;;1.30;;
11747;SDS011;5931;48.832;9.072;2023-07-29T11:20:32;1.47;;;1.23;;
11747;SDS011;5931;48.832;9.072;2023-07-29T11:22:59;1.90;;;1.30;;
11747;SDS011;5931;48.832;9.072;2023-07-29T11:25:27;1.47;;;1.10;;
11747;SDS011;5931;48.832;9.072;2023-07-29T11:27:54;1.30;;;1.13;;
11747;SDS011;5931;48.832;9.072;2023-07-29T11:30:21;1.60;;;1.40;;
11747;SDS011;5931;48.832;9.072;2023-07-29T11:32:55;1.80;;;1.30;;
11747;SDS011;5931;48.832;9.072;2023-07-29T11:35:20;1.23;;;0.97;;
11747;SDS011;5931;48.832;9.072;2023-07-29T11:37:50;1.43;;;1.13;;
11747;SDS011;5931;48.832;9.072;2023-07-29T11:40:21;1.20;;;1.10;;
11747;SDS011;5931;48.832;9.072;2023-07-29T11:42:48;1.97;;;1.20;;
11747;SDS011;5931;48.832;9.072;2023-07-29T11:45:15;1.70;;;1.30;;
11747;SDS011;5931;48.832;9.072;2023-07-29T11:47:41;1.60;;;1.30;;
11747;SDS011;5931;48.832;9.072;2023-07-29T11:50:08;1.70;;;1.30;;
11747;SDS011;5931;48.832;9.072;2023-07-29T11:52:39;1.40;;;1.20;;
11747;SDS011;5931;48.832;9.072;2023-07-29T11:55:07;1.60;;;1.50;;
11747;SDS011;5931;48.832;9.072;2023-07-29T11:57:34;2.33;;;1.60;;
11747;SDS011;5931;48.832;9.072;2023-07-29T12:00:05;2.00;;;1.73;;
11747;SDS011;5931;48.832;9.072;2023-07-29T12:02:35;1.50;;;1.10;;
11747;SDS011;5931;48.832;9.072;2023-07-29T12:05:03;1.53;;;1.23;;
11747;SDS011;5931;48.832;9.072;2023-07-29T12:07:30;1.77;;;1.40;;
11747;SDS011;5931;48.832;9.072;2023-07-29T12:09:56;2.50;;;2.00;;
11747;SDS011;5931;48.832;9.072;2023-07-29T12:12:22;2.47;;;1.80;;
11747;SDS011;5931;48.832;9.072;2023-07-29T12:14:48;1.80;;;1.30;;
11747;SDS011;5931;48.832;9.072;2023-07-29T12:17:14;1.60;;;1.50;;
11747;SDS011;5931;48.832;9.072;2023-07-29T12:19:41;1.40;;;1.20;;
11747;SDS011;5931;48.832;9.072;2023-07-29T12:22:08;2.30;;;1.50;;
11747;SDS011;5931;48.832;9.072;2023-07-29T12:24:37;1.73;;;1.33;;
11747;SDS011;5931;48.832;9.072;2023-07-29T12:27:04;1.40;;;1.30;;
11747;SDS011;5931;48.832;9.072;2023-07-29T12:29:30;1.80;;;1.70;;
11747;SDS011;5931;48.832;9.072;2023-07-29T12:32:03;1.63;;;1.53;;
11747;SDS011;5931;48.832;9.072;2023-07-29T12:34:29;1.93;;;1.53;;
11747;SDS011;5931;48.832;9.072;2023-07-29T12:36:56;1.67;;;1.37;;
11747;SDS011;5931;48.832;9.072;2023-07-29T12:39:27;1.50;;;1.40;;
11747;SDS011;5931;48.832;9.072;2023-07-29T12:41:55;1.80;;;1.33;;
11747;SDS011;5931;48.832;9.072;2023-07-29T12:44:23;2.10;;;1.60;;
11747;SDS011;5931;48.832;9.072;2023-07-29T12:46:50;1.60;;;1.30;;
11747;SDS011;5931;48.832;9.072;2023-07-29T12:49:17;1.63;;;1.53;;
11747;SDS011;5931;48.832;9.072;2023-07-29T12:51:42;1.50;;;1.40;;
11747;SDS011;5931;48.832;9.072;2023-07-29T12:54:08;1.70;;;1.50;;
11747;SDS011;5931;48.832;9.072;2023-07-29T12:56:34;1.70;;;1.53;;
11747;SDS011;5931;48.832;9.072;2023-07-29T12:59:00;1.90;;;1.30;;
11747;SDS011;5931;48.832;9.072;2023-07-29T13:01:27;2.00;;;1.60;;
11747;SDS011;5931;48.832;9.072;2023-07-29T13:03:53;1.90;;;1.70;;
11747;SDS011;5931;48.832;9.072;2023-07-29T13:06:20;2.40;;;1.63;;
11747;SDS011;5931;48.832;9.072;2023-07-29T13:08:46;1.73;;;1.50;;
11747;SDS011;5931;48.832;9.072;2023-07-29T13:11:12;2.10;;;1.60;;
11747;SDS011;5931;48.832;9.072;2023-07-29T13:13:39;2.00;;;1.30;;
11747;SDS011;5931;48.832;9.072;2023-07-29T13:16:04;2.20;;;1.57;;
11747;SDS011;5931;48.832;9.072;2023-07-29T13:18:31;1.60;;;1.30;;
11747;SDS011;5931;48.832;9.072;2023-07-29T13:20:58;1.97;;;1.60;;
11747;SDS011;5931;48.832;9.072;2023-07-29T13:23:25;2.33;;;1.80;;
11747;SDS011;5931;48.832;9.072;2023-07-29T13:25:51;1.93;;;1.37;;
11747;SDS011;5931;48.832;9.072;2023-07-29T13:28:17;3.10;;;2.20;;
11747;SDS011;5931;48.832;9.072;2023-07-29T13:30:44;2.60;;;1.57;;
11747;SDS011;5931;48.832;9.072;2023-07-29T13:33:10;2.13;;;1.30;;
11747;SDS011;5931;48.832;9.072;2023-07-29T13:35:35;2.13;;;1.23;;
11747;SDS011;5931;48.832;9.072;2023-07-29T13:38:01;1.87;;;1.40;;
11747;SDS011;5931;48.832;9.072;2023-07-29T13:40:27;2.10;;;1.43;;
11747;SDS011;5931;48.832;9.072;2023-07-29T13:42:53;2.63;;;1.63;;
11747;SDS011;5931;48.832;9.072;2023-07-29T13:45:19;2.10;;;1.50;;
11747;SDS011;5931;48.832;9.072;2023-07-29T13:47:45;1.60;;;1.50;;
11747;SDS011;5931;48.832;9.072;2023-07-29T13:50:11;3.93;;;1.30;;
11747;SDS011;5931;48.832;9.072;2023-07-29T13:52:37;2.27;;;1.47;;
11747;SDS011;5931;48.832;9.072;2023-07-29T13:55:06;1.43;;;1.33;;
11747;SDS011;5931;48.832;9.072;2023-07-29T13:57:32;1.50;;;1.30;;
11747;SDS011;5931;48.832;9.072;2023-07-29T13:59:58;1.90;;;1.40;;
11747;SDS011;5931;48.832;9.072;2023-07-29T14:02:24;2.90;;;1.30;;
11747;SDS011;5931;48.832;9.072;2023-07-29T14:04:51;2.30;;;1.60;;
11747;SDS011;5931;48.832;9.072;2023-07-29T14:07:17;2.07;;;1.87;;
11747;SDS011;5931;48.832;9.072;2023-07-29T14:09:43;1.50;;;1.30;;
11747;SDS011;5931;48.832;9.072;2023-07-29T14:12:09;2.47;;;1.80;;
11747;SDS011;5931;48.832;9.072;2023-07-29T14:14:39;1.97;;;1.33;;
11747;SDS011;5931;48.832;9.072;2023-07-29T14:17:05;2.97;;;1.73;;
11747;SDS011;5931;48.832;9.072;2023-07-29T14:19:32;1.70;;;1.33;;
11747;SDS011;5931;48.832;9.072;2023-07-29T14:21:58;1.90;;;1.53;;
11747;SDS011;5931;48.832;9.072;2023-07-29T14:24:24;2.37;;;1.57;;
11747;SDS011;5931;48.832;9.072;2023-07-29T14:26:49;1.30;;;1.10;;
11747;SDS011;5931;48.832;9.072;2023-07-29T14:29:15;2.70;;;1.40;;
11747;SDS011;5931;48.832;9.072;2023-07-29T15:24:06;1.60;;;1.37;;
11747;SDS011;5931;48.832;9.072;2023-07-29T15:26:32;1.87;;;1.40;;
11747;SDS011;5931;48.832;9.072;2023-07-29T15:28:58;1.97;;;1.40;;
11747;SDS011;5931;48.832;9.072;2023-07-29T15:31:25;2.13;;;1.93;;
11747;SDS011;5931;48.832;9.072;2023-07-29T15:33:51;2.83;;;1.90;;
11747;SDS011;5931;48.832;9.072;2023-07-29T15:36:16;3.00;;;1.70;;
11747;SDS011;5931;48.832;9.072;2023-07-29T15:38:42;2.57;;;1.67;;
11747;SDS011;5931;48.832;9.072;2023-07-29T15:41:08;1.50;;;1.40;;
11747;SDS011;5931;48.832;9.072;2023-07-29T15:43:34;2.80;;;1.70;;
11747;SDS011;5931;48.832;9.072;2023-07-29T15:45:59;2.13;;;1.70;;
11747;SDS011;5931;48.832;9.072;2023-07-29T15:48:25;2.07;;;1.83;;
11747;SDS011;5931;48.832;9.072;2023-07-29T15:50:51;2.07;;;1.50;;
11747;SDS011;5931;48.832;9.072;2023-07-29T15:53:16;2.73;;;1.80;;
11747;SDS011;5931;48.832;9.072;2023-07-29T15:55:42;2.80;;;1.50;;
11747;SDS011;5931;48.832;9.072;2023-07-29T15:58:08;2.17;;;1.73;;
11747;SDS011;5931;48.832;9.072;2023-07-29T16:00:33;2.27;;;1.70;;
11747;SDS011;5931;48.832;9.072;2023-07-29T16:02:59;2.70;;;2.00;;
11747;SDS011;5931;48.832;9.072;2023-07-29T16:05:25;2.00;;;1.80;;
11747;SDS011;5931;48.832;9.072;2023-07-29T16:07:50;2.30;;;1.70;;
11747;SDS011;5931;48.832;9.072;2023-07-29T16:10:18;2.80;;;1.53;;
11747;SDS011;5931;48.832;9.072;2023-07-29T16:12:43;2.20;;;1.83;;
11747;SDS011;5931;48.832;9.072;2023-07-29T16:15:09;3.20;;;2.27;;